Terminal Aerodrome Forecast
Issued by NWS

Home | Current Version | Previous Version | Graphics & Text | Print | Product List | Glossary On
Versions: 1 2 3 4 5 6 7 8 9 10 11 12 13 14 15 16
258
FTUS41 KCLE 200532
TAFFDY
TAF
KFDY 200532Z 2006/2106 16003KT 6SM BR SCT025 BKN035
      TEMPO 2006/2009 3SM BR BKN012
     FM200900 00000KT 3SM BR BKN008
      TEMPO 2009/2013 1SM BR BKN005
     FM201300 00000KT 6SM BR BKN012 OVC025
     FM201500 21004KT P6SM BKN025
     FM201700 21005KT P6SM BKN045=

USA.gov is the U.S. government's official web portal to all federal, state and local government web resources and services.